Terminal Aerodrome Forecast
Issued by NWS St Louis, MO

Home | Current Version | Previous Version | Graphics & Text | Print | Product List | Glossary On
Versions: 1 2 3 4 5 6 7 8 9 10 11 12 13 14 15 16 17 18 19 20 21 22 23
000
FTUS43 KLSX 281720
TAFSTL
TAF
KSTL 281720Z 2818/2924 34013G20KT P6SM SCT040
     FM290200 33008KT P6SM SCT250
     FM291400 34012KT P6SM BKN025
     FM291800 34012KT P6SM SCT035=

USA.gov is the U.S. government's official web portal to all federal, state and local government web resources and services.